sensor_id;sensor_type;location;lat;lon;timestamp;pressure;altitude;pressure_sealevel;temperature;humidity
61109;BME280;46995;55.740;37.402;2023-04-24T00:00:02;99485.19;;;10.43;48.48
61109;BME280;46995;55.740;37.402;2023-04-24T00:02:31;99489.78;;;10.41;48.75
61109;BME280;46995;55.740;37.402;2023-04-24T00:04:58;99485.72;;;10.37;48.30
61109;BME280;46995;55.740;37.402;2023-04-24T00:07:28;99490.31;;;10.35;48.25
61109;BME280;46995;55.740;37.402;2023-04-24T00:09:54;99488.91;;;10.31;48.32
61109;BME280;46995;55.740;37.402;2023-04-24T00:12:20;99485.53;;;10.29;48.61
61109;BME280;46995;55.740;37.402;2023-04-24T00:14:45;99482.19;;;10.27;48.90
61109;BME280;46995;55.740;37.402;2023-04-24T00:17:11;99485.53;;;10.29;48.82
61109;BME280;46995;55.740;37.402;2023-04-24T00:19:36;99487.47;;;10.27;48.75
61109;BME280;46995;55.740;37.402;2023-04-24T00:22:02;99484.00;;;10.26;48.52
61109;BME280;46995;55.740;37.402;2023-04-24T00:24:28;99493.13;;;10.22;47.49
61109;BME280;46995;55.740;37.402;2023-04-24T00:26:53;99489.94;;;10.18;48.35
61109;BME280;46995;55.740;37.402;2023-04-24T00:29:20;99490.16;;;10.15;49.24
61109;BME280;46995;55.740;37.402;2023-04-24T00:31:45;99480.59;;;10.14;49.17
61109;BME280;46995;55.740;37.402;2023-04-24T00:34:13;99480.59;;;10.14;49.06
61109;BME280;46995;55.740;37.402;2023-04-24T00:36:38;99483.22;;;10.14;49.13
61109;BME280;46995;55.740;37.402;2023-04-24T00:39:04;99484.88;;;10.15;49.54
61109;BME280;46995;55.740;37.402;2023-04-24T00:41:30;99484.06;;;10.15;49.27
61109;BME280;46995;55.740;37.402;2023-04-24T00:43:55;99492.09;;;10.13;48.99
61109;BME280;46995;55.740;37.402;2023-04-24T00:46:21;99491.13;;;10.14;49.32
61109;BME280;46995;55.740;37.402;2023-04-24T00:48:47;99481.53;;;10.13;49.37
61109;BME280;46995;55.740;37.402;2023-04-24T00:51:13;99482.63;;;10.11;48.95
61109;BME280;46995;55.740;37.402;2023-04-24T00:53:38;99489.97;;;10.07;48.90
61109;BME280;46995;55.740;37.402;2023-04-24T00:56:04;99489.25;;;10.05;49.00
61109;BME280;46995;55.740;37.402;2023-04-24T00:58:30;99497.31;;;10.04;47.74
61109;BME280;46995;55.740;37.402;2023-04-24T01:00:56;99488.13;;;9.98;48.80
61109;BME280;46995;55.740;37.402;2023-04-24T01:03:25;99489.09;;;9.97;48.54
61109;BME280;46995;55.740;37.402;2023-04-24T01:05:51;99487.41;;;9.96;48.21
61109;BME280;46995;55.740;37.402;2023-04-24T01:08:18;99490.03;;;9.96;49.55
61109;BME280;46995;55.740;37.402;2023-04-24T01:10:45;99485.03;;;9.93;49.10
61109;BME280;46995;55.740;37.402;2023-04-24T01:13:11;99488.19;;;9.87;49.48
61109;BME280;46995;55.740;37.402;2023-04-24T01:15:37;99493.84;;;9.83;49.36
61109;BME280;46995;55.740;37.402;2023-04-24T01:18:03;99487.16;;;9.78;50.06
61109;BME280;46995;55.740;37.402;2023-04-24T01:20:28;99488.81;;;9.79;49.44
61109;BME280;46995;55.740;37.402;2023-04-24T01:22:55;99490.88;;;9.76;49.42
61109;BME280;46995;55.740;37.402;2023-04-24T01:25:22;99491.84;;;9.75;49.27
61109;BME280;46995;55.740;37.402;2023-04-24T01:27:48;99480.44;;;9.74;49.84
61109;BME280;46995;55.740;37.402;2023-04-24T01:30:14;99475.19;;;9.74;50.27
61109;BME280;46995;55.740;37.402;2023-04-24T01:32:40;99479.50;;;9.75;50.29
61109;BME280;46995;55.740;37.402;2023-04-24T01:35:06;99477.97;;;9.73;50.33
61109;BME280;46995;55.740;37.402;2023-04-24T01:37:31;99481.56;;;9.72;50.62
61109;BME280;46995;55.740;37.402;2023-04-24T01:39:58;99477.34;;;9.69;50.63
61109;BME280;46995;55.740;37.402;2023-04-24T01:42:25;99478.47;;;9.67;50.74
61109;BME280;46995;55.740;37.402;2023-04-24T01:44:50;99466.25;;;9.66;51.19
61109;BME280;46995;55.740;37.402;2023-04-24T01:47:16;99477.63;;;9.66;50.33
61109;BME280;46995;55.740;37.402;2023-04-24T01:49:42;99468.88;;;9.66;49.96
61109;BME280;46995;55.740;37.402;2023-04-24T01:52:08;99469.00;;;9.64;50.34
61109;BME280;46995;55.740;37.402;2023-04-24T01:54:33;99470.69;;;9.65;50.81
61109;BME280;46995;55.740;37.402;2023-04-24T01:57:00;99475.09;;;9.65;50.42
61109;BME280;46995;55.740;37.402;2023-04-24T01:59:28;99462.88;;;9.64;49.77
61109;BME280;46995;55.740;37.402;2023-04-24T02:01:53;99471.91;;;9.61;50.12
61109;BME280;46995;55.740;37.402;2023-04-24T02:04:19;99472.03;;;9.60;50.41
61109;BME280;46995;55.740;37.402;2023-04-24T02:06:45;99470.50;;;9.57;50.47
61109;BME280;46995;55.740;37.402;2023-04-24T02:09:11;99475.88;;;9.56;50.08
61109;BME280;46995;55.740;37.402;2023-04-24T02:11:37;99479.47;;;9.55;50.07
61109;BME280;46995;55.740;37.402;2023-04-24T02:14:02;99472.53;;;9.54;50.18
61109;BME280;46995;55.740;37.402;2023-04-24T02:16:28;99474.94;;;9.57;50.21
61109;BME280;46995;55.740;37.402;2023-04-24T02:18:57;99475.63;;;9.59;50.71
61109;BME280;46995;55.740;37.402;2023-04-24T02:21:23;99472.84;;;9.60;50.09
61109;BME280;46995;55.740;37.402;2023-04-24T02:23:49;99473.44;;;9.64;50.35
61109;BME280;46995;55.740;37.402;2023-04-24T02:26:16;99474.16;;;9.66;50.25
61109;BME280;46995;55.740;37.402;2023-04-24T02:28:43;99472.94;;;9.70;50.25
61109;BME280;46995;55.740;37.402;2023-04-24T02:31:09;99473.66;;;9.72;50.11
61109;BME280;46995;55.740;37.402;2023-04-24T02:33:35;99474.34;;;9.74;49.30
61109;BME280;46995;55.740;37.402;2023-04-24T02:36:01;99476.00;;;9.75;49.86
61109;BME280;46995;55.740;37.402;2023-04-24T02:38:27;99482.13;;;9.75;50.33
61109;BME280;46995;55.740;37.402;2023-04-24T02:40:52;99475.31;;;9.73;49.89
61109;BME280;46995;55.740;37.402;2023-04-24T02:43:18;99475.31;;;9.73;50.23
61109;BME280;46995;55.740;37.402;2023-04-24T02:45:44;99482.13;;;9.75;50.33
61109;BME280;46995;55.740;37.402;2023-04-24T02:48:09;99487.97;;;9.79;49.89
61109;BME280;46995;55.740;37.402;2023-04-24T02:50:35;99486.06;;;9.81;49.93
61109;BME280;46995;55.740;37.402;2023-04-24T02:53:01;99484.97;;;9.84;49.82
61109;BME280;46995;55.740;37.402;2023-04-24T02:55:26;99480.28;;;9.87;49.96
61109;BME280;46995;55.740;37.402;2023-04-24T02:57:52;99480.00;;;9.90;49.61
61109;BME280;46995;55.740;37.402;2023-04-24T03:00:18;99490.31;;;9.93;49.90
61109;BME280;46995;55.740;37.402;2023-04-24T03:02:44;99485.47;;;9.98;49.89
61109;BME280;46995;55.740;37.402;2023-04-24T03:05:10;99486.06;;;10.02;49.61
61109;BME280;46995;55.740;37.402;2023-04-24T03:07:37;99498.16;;;10.04;49.42
61109;BME280;46995;55.740;37.402;2023-04-24T03:10:04;99494.53;;;10.05;49.37
61109;BME280;46995;55.740;37.402;2023-04-24T03:12:30;99490.94;;;10.06;49.39
61109;BME280;46995;55.740;37.402;2023-04-24T03:14:56;99498.34;;;10.12;49.43
61109;BME280;46995;55.740;37.402;2023-04-24T03:17:22;99495.22;;;10.18;49.55
61109;BME280;46995;55.740;37.402;2023-04-24T03:19:47;99503.31;;;10.27;49.01
61109;BME280;46995;55.740;37.402;2023-04-24T03:22:13;99499.19;;;10.34;48.72
61109;BME280;46995;55.740;37.402;2023-04-24T03:24:39;99500.34;;;10.41;48.79
61109;BME280;46995;55.740;37.402;2023-04-24T03:27:06;99501.47;;;10.48;48.67
61109;BME280;46995;55.740;37.402;2023-04-24T03:29:53;99500.69;;;10.57;48.47
61109;BME280;46995;55.740;37.402;2023-04-24T03:32:25;99506.25;;;10.63;48.66
61109;BME280;46995;55.740;37.402;2023-04-24T03:34:51;99497.69;;;10.71;47.90
61109;BME280;46995;55.740;37.402;2023-04-24T03:37:17;99501.31;;;10.80;47.89
61109;BME280;46995;55.740;37.402;2023-04-24T03:39:50;99509.25;;;10.89;47.68
61109;BME280;46995;55.740;37.402;2023-04-24T03:42:18;99511.13;;;10.98;47.60
61109;BME280;46995;55.740;37.402;2023-04-24T03:44:51;99510.44;;;11.06;47.43
61109;BME280;46995;55.740;37.402;2023-04-24T03:47:21;99505.88;;;11.18;47.00
61109;BME280;46995;55.740;37.402;2023-04-24T03:49:49;99506.72;;;11.28;46.85
61109;BME280;46995;55.740;37.402;2023-04-24T03:52:15;99511.19;;;11.37;46.71
61109;BME280;46995;55.740;37.402;2023-04-24T03:54:41;99510.09;;;11.49;46.28
61109;BME280;46995;55.740;37.402;2023-04-24T03:57:06;99513.16;;;11.54;46.37
61109;BME280;46995;55.740;37.402;2023-04-24T03:59:35;99510.09;;;11.59;46.35
61109;BME280;46995;55.740;37.402;2023-04-24T04:02:15;99513.00;;;11.65;46.09
61109;BME280;46995;55.740;37.402;2023-04-24T04:04:41;99517.75;;;11.71;45.76
61109;BME280;46995;55.740;37.402;2023-04-24T04:07:06;99509.97;;;11.79;45.64
61109;BME280;46995;55.740;37.402;2023-04-24T04:09:33;99518.72;;;11.89;45.39
61109;BME280;46995;55.740;37.402;2023-04-24T04:11:59;99514.25;;;12.00;44.96
61109;BME280;46995;55.740;37.402;2023-04-24T04:14:26;99515.25;;;12.08;44.96
61109;BME280;46995;55.740;37.402;2023-04-24T04:16:52;99512.00;;;12.14;44.71
61109;BME280;46995;55.740;37.402;2023-04-24T04:19:18;99517.75;;;12.19;44.72
61109;BME280;46995;55.740;37.402;2023-04-24T04:21:44;99514.78;;;12.22;44.64
61109;BME280;46995;55.740;37.402;2023-04-24T04:24:43;99519.34;;;12.30;44.40
61109;BME280;46995;55.740;37.402;2023-04-24T04:27:10;99521.44;;;12.36;44.25
61109;BME280;46995;55.740;37.402;2023-04-24T04:29:57;99524.47;;;12.41;44.20
61109;BME280;46995;55.740;37.402;2023-04-24T04:32:23;99520.59;;;12.45;44.18
61109;BME280;46995;55.740;37.402;2023-04-24T04:34:49;99523.47;;;12.52;44.11
61109;BME280;46995;55.740;37.402;2023-04-24T04:37:15;99530.00;;;12.57;44.00
61109;BME280;46995;55.740;37.402;2023-04-24T04:40:02;99526.09;;;12.61;43.65
61109;BME280;46995;55.740;37.402;2023-04-24T04:42:45;99526.91;;;12.71;43.56
61109;BME280;46995;55.740;37.402;2023-04-24T04:45:12;99522.81;;;12.77;43.50
61109;BME280;46995;55.740;37.402;2023-04-24T04:48:01;99529.22;;;12.84;43.03
61109;BME280;46995;55.740;37.402;2023-04-24T04:50:29;99523.47;;;12.89;43.26
61109;BME280;46995;55.740;37.402;2023-04-24T04:53:00;99531.53;;;12.97;43.03
61109;BME280;46995;55.740;37.402;2023-04-24T04:55:31;99526.63;;;13.02;42.77
61109;BME280;46995;55.740;37.402;2023-04-24T04:58:06;99532.31;;;13.07;42.65
61109;BME280;46995;55.740;37.402;2023-04-24T05:00:32;99534.41;;;13.13;42.69
61109;BME280;46995;55.740;37.402;2023-04-24T05:03:05;99530.34;;;13.19;42.84
61109;BME280;46995;55.740;37.402;2023-04-24T05:05:32;99535.88;;;13.25;42.93
61109;BME280;46995;55.740;37.402;2023-04-24T05:07:58;99532.34;;;13.34;42.71
61109;BME280;46995;55.740;37.402;2023-04-24T05:10:24;99533.38;;;13.41;42.53
61109;BME280;46995;55.740;37.402;2023-04-24T05:12:52;99540.75;;;13.47;42.29
61109;BME280;46995;55.740;37.402;2023-04-24T05:15:18;99537.50;;;13.53;42.46
61109;BME280;46995;55.740;37.402;2023-04-24T05:17:43;99532.56;;;13.58;42.38
61109;BME280;46995;55.740;37.402;2023-04-24T05:20:10;99539.75;;;13.66;42.22
61109;BME280;46995;55.740;37.402;2023-04-24T05:22:37;99536.06;;;13.77;42.07
61109;BME280;46995;55.740;37.402;2023-04-24T05:25:03;99533.47;;;13.85;41.90
61109;BME280;46995;55.740;37.402;2023-04-24T05:27:51;99534.22;;;13.95;41.74
61109;BME280;46995;55.740;37.402;2023-04-24T05:30:18;99528.81;;;14.05;41.78
61109;BME280;46995;55.740;37.402;2023-04-24T05:32:44;99534.88;;;14.15;41.57
61109;BME280;46995;55.740;37.402;2023-04-24T05:35:10;99538.13;;;14.26;41.41
61109;BME280;46995;55.740;37.402;2023-04-24T05:37:36;99526.88;;;14.32;41.24
61109;BME280;46995;55.740;37.402;2023-04-24T05:40:01;99524.63;;;14.37;40.96
61109;BME280;46995;55.740;37.402;2023-04-24T05:42:29;99522.00;;;14.46;41.31
61109;BME280;46995;55.740;37.402;2023-04-24T05:44:56;99524.19;;;14.50;41.05
61109;BME280;46995;55.740;37.402;2023-04-24T05:47:21;99528.88;;;14.56;40.97
61109;BME280;46995;55.740;37.402;2023-04-24T05:49:48;99523.78;;;14.63;40.73
61109;BME280;46995;55.740;37.402;2023-04-24T05:52:13;99528.47;;;14.69;40.69
61109;BME280;46995;55.740;37.402;2023-04-24T05:54:40;99520.50;;;14.77;40.87
61109;BME280;46995;55.740;37.402;2023-04-24T05:57:12;99522.06;;;14.88;40.39
61109;BME280;46995;55.740;37.402;2023-04-24T05:59:48;99530.09;;;14.96;40.43
61109;BME280;46995;55.740;37.402;2023-04-24T06:02:15;99526.59;;;15.03;40.55
61109;BME280;46995;55.740;37.402;2023-04-24T06:04:41;99525.81;;;15.11;40.40
61109;BME280;46995;55.740;37.402;2023-04-24T06:07:07;99522.34;;;15.18;40.40
61109;BME280;46995;55.740;37.402;2023-04-24T06:09:32;99520.38;;;15.28;40.06
61109;BME280;46995;55.740;37.402;2023-04-24T06:11:58;99512.09;;;15.40;39.86
61109;BME280;46995;55.740;37.402;2023-04-24T06:14:32;99524.25;;;15.50;39.45
61109;BME280;46995;55.740;37.402;2023-04-24T06:17:17;99519.16;;;15.57;39.45
61109;BME280;46995;55.740;37.402;2023-04-24T06:19:44;99528.78;;;15.66;39.13
61109;BME280;46995;55.740;37.402;2023-04-24T06:22:10;99527.66;;;15.77;39.27
61109;BME280;46995;55.740;37.402;2023-04-24T06:24:35;99526.84;;;15.84;38.63
61109;BME280;46995;55.740;37.402;2023-04-24T06:27:01;99529.50;;;15.92;38.95
61109;BME280;46995;55.740;37.402;2023-04-24T06:29:27;99526.16;;;15.98;38.74
61109;BME280;46995;55.740;37.402;2023-04-24T06:31:52;99528.16;;;16.04;38.60
61109;BME280;46995;55.740;37.402;2023-04-24T06:34:18;99524.16;;;16.08;38.63
61109;BME280;46995;55.740;37.402;2023-04-24T06:36:44;99530.50;;;16.16;38.75
61109;BME280;46995;55.740;37.402;2023-04-24T06:39:09;99524.50;;;16.22;38.13
61109;BME280;46995;55.740;37.402;2023-04-24T06:41:36;99539.47;;;16.31;38.04
61109;BME280;46995;55.740;37.402;2023-04-24T06:44:02;99528.13;;;16.37;38.01
61109;BME280;46995;55.740;37.402;2023-04-24T06:46:31;99527.63;;;16.41;38.28
61109;BME280;46995;55.740;37.402;2023-04-24T06:48:58;99525.13;;;16.48;37.84
61109;BME280;46995;55.740;37.402;2023-04-24T06:51:24;99529.59;;;16.56;38.12
61109;BME280;46995;55.740;37.402;2023-04-24T06:53:54;99526.13;;;16.63;37.39
61109;BME280;46995;55.740;37.402;2023-04-24T06:56:21;99522.41;;;16.72;37.01
61109;BME280;46995;55.740;37.402;2023-04-24T06:58:47;99529.38;;;16.81;37.83
61109;BME280;46995;55.740;37.402;2023-04-24T07:01:13;99525.19;;;16.87;37.78
61109;BME280;46995;55.740;37.402;2023-04-24T07:03:39;99522.63;;;17.02;35.14
61109;BME280;46995;55.740;37.402;2023-04-24T07:06:05;99525.91;;;17.12;36.84
61109;BME280;46995;55.740;37.402;2023-04-24T07:08:31;99536.22;;;17.23;36.91
61109;BME280;46995;55.740;37.402;2023-04-24T07:10:57;99529.66;;;17.33;36.39
61109;BME280;46995;55.740;37.402;2023-04-24T07:13:22;99532.75;;;17.45;36.13
61109;BME280;46995;55.740;37.402;2023-04-24T07:15:48;99532.38;;;17.56;36.98
61109;BME280;46995;55.740;37.402;2023-04-24T07:18:19;99539.00;;;17.68;35.83
61109;BME280;46995;55.740;37.402;2023-04-24T07:20:45;99527.41;;;17.76;36.83
61109;BME280;46995;55.740;37.402;2023-04-24T07:23:10;99538.22;;;17.83;35.36
61109;BME280;46995;55.740;37.402;2023-04-24T07:25:36;99539.19;;;17.90;35.68
61109;BME280;46995;55.740;37.402;2023-04-24T07:28:01;99532.28;;;17.95;36.36
61109;BME280;46995;55.740;37.402;2023-04-24T07:30:27;99532.75;;;17.99;36.34
61109;BME280;46995;55.740;37.402;2023-04-24T07:32:58;99527.41;;;17.99;35.51
61109;BME280;46995;55.740;37.402;2023-04-24T07:35:23;99527.25;;;18.00;35.68
61109;BME280;46995;55.740;37.402;2023-04-24T07:37:51;99542.75;;;18.05;35.30
61109;BME280;46995;55.740;37.402;2023-04-24T07:40:16;99540.00;;;18.13;35.97
61109;BME280;46995;55.740;37.402;2023-04-24T07:42:42;99537.88;;;18.23;35.67
61109;BME280;46995;55.740;37.402;2023-04-24T07:45:09;99532.47;;;18.31;35.44
61109;BME280;46995;55.740;37.402;2023-04-24T07:47:34;99535.91;;;18.40;34.63
61109;BME280;46995;55.740;37.402;2023-04-24T07:50:01;99526.59;;;18.50;33.99
61109;BME280;46995;55.740;37.402;2023-04-24T07:52:28;99522.13;;;18.66;32.72
61109;BME280;46995;55.740;37.402;2023-04-24T07:54:54;99517.97;;;18.78;34.53
61109;BME280;46995;55.740;37.402;2023-04-24T07:57:26;99521.47;;;18.93;32.54
61109;BME280;46995;55.740;37.402;2023-04-24T07:59:52;99509.28;;;19.05;33.93
61109;BME280;46995;55.740;37.402;2023-04-24T08:02:17;99506.50;;;19.13;32.98
61109;BME280;46995;55.740;37.402;2023-04-24T08:04:43;99516.06;;;19.22;33.25
61109;BME280;46995;55.740;37.402;2023-04-24T08:07:09;99521.97;;;19.32;31.41
61109;BME280;46995;55.740;37.402;2023-04-24T08:09:34;99515.59;;;19.33;31.00
61109;BME280;46995;55.740;37.402;2023-04-24T08:12:00;99510.13;;;19.41;32.11
61109;BME280;46995;55.740;37.402;2023-04-24T08:14:26;99509.84;;;19.51;32.83
61109;BME280;46995;55.740;37.402;2023-04-24T08:16:57;99509.03;;;19.51;30.57
61109;BME280;46995;55.740;37.402;2023-04-24T08:19:25;99506.09;;;19.45;29.94
61109;BME280;46995;55.740;37.402;2023-04-24T08:21:51;99512.28;;;19.46;31.51
61109;BME280;46995;55.740;37.402;2023-04-24T08:24:16;99503.66;;;19.51;32.00
61109;BME280;46995;55.740;37.402;2023-04-24T08:26:42;99506.88;;;19.61;31.37
61109;BME280;46995;55.740;37.402;2023-04-24T08:29:07;99497.34;;;19.79;30.41
61109;BME280;46995;55.740;37.402;2023-04-24T08:31:33;99497.34;;;20.01;30.97
61109;BME280;46995;55.740;37.402;2023-04-24T08:33:59;99498.13;;;20.22;30.95
61109;BME280;46995;55.740;37.402;2023-04-24T08:36:25;99490.00;;;20.37;31.20
61109;BME280;46995;55.740;37.402;2023-04-24T08:38:51;99497.09;;;20.45;30.45
61109;BME280;46995;55.740;37.402;2023-04-24T08:41:17;99498.34;;;20.49;30.71
61109;BME280;46995;55.740;37.402;2023-04-24T08:43:43;99486.59;;;20.50;31.63
61109;BME280;46995;55.740;37.402;2023-04-24T08:46:08;99495.44;;;20.44;31.28
61109;BME280;46995;55.740;37.402;2023-04-24T08:48:35;99485.44;;;20.31;29.93
61109;BME280;46995;55.740;37.402;2023-04-24T08:51:01;99491.06;;;20.15;31.88
61109;BME280;46995;55.740;37.402;2023-04-24T08:53:27;99485.94;;;19.92;32.13
61109;BME280;46995;55.740;37.402;2023-04-24T08:55:54;99481.59;;;19.70;31.08
61109;BME280;46995;55.740;37.402;2023-04-24T08:58:19;99475.66;;;19.53;30.72
61109;BME280;46995;55.740;37.402;2023-04-24T09:00:45;99478.91;;;19.49;31.98
61109;BME280;46995;55.740;37.402;2023-04-24T09:03:15;99478.72;;;19.50;31.44
61109;BME280;46995;55.740;37.402;2023-04-24T09:05:42;99478.81;;;19.57;30.64
61109;BME280;46995;55.740;37.402;2023-04-24T09:08:10;99474.47;;;19.56;31.11
61109;BME280;46995;55.740;37.402;2023-04-24T09:10:39;99469.53;;;19.59;30.71
61109;BME280;46995;55.740;37.402;2023-04-24T09:13:04;99464.63;;;19.63;30.20
61109;BME280;46995;55.740;37.402;2023-04-24T09:15:31;99462.59;;;19.65;30.00
61109;BME280;46995;55.740;37.402;2023-04-24T09:17:56;99462.41;;;19.66;31.41
61109;BME280;46995;55.740;37.402;2023-04-24T09:20:22;99472.28;;;19.66;30.84
61109;BME280;46995;55.740;37.402;2023-04-24T09:22:48;99470.63;;;19.65;30.93
61109;BME280;46995;55.740;37.402;2023-04-24T09:25:13;99464.00;;;19.61;30.52
61109;BME280;46995;55.740;37.402;2023-04-24T09:27:42;99459.06;;;19.64;30.29
61109;BME280;46995;55.740;37.402;2023-04-24T09:30:09;99456.66;;;19.69;30.51
61109;BME280;46995;55.740;37.402;2023-04-24T09:32:35;99451.53;;;19.74;30.55
61109;BME280;46995;55.740;37.402;2023-04-24T09:35:13;99452.00;;;19.78;30.58
61109;BME280;46995;55.740;37.402;2023-04-24T09:37:40;99452.50;;;19.67;29.33
61109;BME280;46995;55.740;37.402;2023-04-24T09:40:07;99450.44;;;19.48;30.23
61109;BME280;46995;55.740;37.402;2023-04-24T09:42:33;99443.69;;;19.30;30.79
61109;BME280;46995;55.740;37.402;2023-04-24T09:44:58;99444.78;;;19.21;31.07
61109;BME280;46995;55.740;37.402;2023-04-24T09:47:25;99443.44;;;19.11;30.22
61109;BME280;46995;55.740;37.402;2023-04-24T09:49:51;99439.69;;;19.05;30.16
61109;BME280;46995;55.740;37.402;2023-04-24T09:52:22;99436.50;;;19.16;30.60
61109;BME280;46995;55.740;37.402;2023-04-24T09:54:56;99435.00;;;19.28;30.36
61109;BME280;46995;55.740;37.402;2023-04-24T09:57:22;99435.13;;;19.41;29.40
61109;BME280;46995;55.740;37.402;2023-04-24T09:59:49;99428.25;;;19.54;30.01
61109;BME280;46995;55.740;37.402;2023-04-24T10:02:18;99431.16;;;19.52;30.21
61109;BME280;46995;55.740;37.402;2023-04-24T10:05:06;99424.50;;;19.48;29.73
61109;BME280;46995;55.740;37.402;2023-04-24T10:07:32;99426.22;;;19.56;28.57
61109;BME280;46995;55.740;37.402;2023-04-24T10:09:58;99426.81;;;19.72;30.37
61109;BME280;46995;55.740;37.402;2023-04-24T10:12:24;99428.63;;;19.93;29.33
61109;BME280;46995;55.740;37.402;2023-04-24T10:14:52;99431.69;;;20.18;28.91
61109;BME280;46995;55.740;37.402;2023-04-24T10:17:18;99423.91;;;20.29;28.07
61109;BME280;46995;55.740;37.402;2023-04-24T10:19:47;99420.59;;;20.27;29.63
61109;BME280;46995;55.740;37.402;2023-04-24T10:22:12;99413.50;;;20.13;27.56
61109;BME280;46995;55.740;37.402;2023-04-24T10:24:41;99412.03;;;20.11;28.72
61109;BME280;46995;55.740;37.402;2023-04-24T10:27:11;99411.06;;;20.18;28.14
61109;BME280;46995;55.740;37.402;2023-04-24T10:29:56;99409.50;;;20.30;26.81
61109;BME280;46995;55.740;37.402;2023-04-24T10:32:22;99410.47;;;20.51;27.59
61109;BME280;46995;55.740;37.402;2023-04-24T10:34:48;99401.44;;;20.65;27.29
61109;BME280;46995;55.740;37.402;2023-04-24T10:37:15;99413.53;;;20.95;27.47
61109;BME280;46995;55.740;37.402;2023-04-24T10:39:40;99409.22;;;21.07;27.94
61109;BME280;46995;55.740;37.402;2023-04-24T10:42:13;99404.06;;;21.12;27.77
61109;BME280;46995;55.740;37.402;2023-04-24T10:44:40;99405.34;;;21.17;26.69
61109;BME280;46995;55.740;37.402;2023-04-24T10:47:12;99394.22;;;21.20;26.43
61109;BME280;46995;55.740;37.402;2023-04-24T10:49:38;99396.28;;;21.18;27.00
61109;BME280;46995;55.740;37.402;2023-04-24T10:52:04;99397.94;;;21.19;27.85
61109;BME280;46995;55.740;37.402;2023-04-24T10:54:36;99396.91;;;21.20;27.47
61109;BME280;46995;55.740;37.402;2023-04-24T10:59:44;99401.13;;;20.94;28.16
61109;BME280;46995;55.740;37.402;2023-04-24T11:02:10;99398.38;;;20.75;26.62
61109;BME280;46995;55.740;37.402;2023-04-24T11:04:36;99391.13;;;20.62;27.43
61109;BME280;46995;55.740;37.402;2023-04-24T11:07:02;99386.16;;;20.65;28.20
61109;BME280;46995;55.740;37.402;2023-04-24T11:09:30;99390.97;;;20.77;27.40
61109;BME280;46995;55.740;37.402;2023-04-24T11:12:05;99382.91;;;20.83;26.97
61109;BME280;46995;55.740;37.402;2023-04-24T11:17:30;99368.53;;;21.04;27.21
61109;BME280;46995;55.740;37.402;2023-04-24T11:20:03;99370.66;;;21.22;26.87
61109;BME280;46995;55.740;37.402;2023-04-24T11:22:31;99373.97;;;21.37;27.48
61109;BME280;46995;55.740;37.402;2023-04-24T11:24:59;99374.00;;;21.50;27.27
61109;BME280;46995;55.740;37.402;2023-04-24T11:27:38;99375.22;;;21.54;25.25
61109;BME280;46995;55.740;37.402;2023-04-24T11:30:05;99371.53;;;21.55;26.02
61109;BME280;46995;55.740;37.402;2023-04-24T11:35:00;99371.53;;;21.55;25.97
61109;BME280;46995;55.740;37.402;2023-04-24T11:37:36;99369.66;;;21.49;26.83
61109;BME280;46995;55.740;37.402;2023-04-24T11:40:04;99369.84;;;21.41;27.03
61109;BME280;46995;55.740;37.402;2023-04-24T11:42:36;99357.03;;;21.36;26.84
61109;BME280;46995;55.740;37.402;2023-04-24T11:45:06;99358.66;;;21.31;26.47
61109;BME280;46995;55.740;37.402;2023-04-24T11:47:32;99356.41;;;21.28;26.85
61109;BME280;46995;55.740;37.402;2023-04-24T11:50:00;99343.81;;;21.28;27.46
61109;BME280;46995;55.740;37.402;2023-04-24T11:52:26;99334.50;;;21.31;25.94
61109;BME280;46995;55.740;37.402;2023-04-24T11:54:52;99334.28;;;21.26;27.72
61109;BME280;46995;55.740;37.402;2023-04-24T11:57:24;99329.75;;;21.26;26.52
61109;BME280;46995;55.740;37.402;2023-04-24T11:59:51;99319.00;;;21.33;26.87
61109;BME280;46995;55.740;37.402;2023-04-24T12:02:24;99324.38;;;21.46;25.79
61109;BME280;46995;55.740;37.402;2023-04-24T12:04:51;99319.00;;;21.59;25.65
61109;BME280;46995;55.740;37.402;2023-04-24T12:07:16;99327.66;;;21.74;26.64
61109;BME280;46995;55.740;37.402;2023-04-24T12:09:45;99316.63;;;22.22;25.36
61109;BME280;46995;55.740;37.402;2023-04-24T12:12:12;99307.34;;;23.56;24.52
61109;BME280;46995;55.740;37.402;2023-04-24T12:14:45;99310.94;;;25.38;24.07
61109;BME280;46995;55.740;37.402;2023-04-24T12:17:12;99310.56;;;27.24;22.71
61109;BME280;46995;55.740;37.402;2023-04-24T12:19:38;99309.19;;;28.27;22.21
61109;BME280;46995;55.740;37.402;2023-04-24T12:22:04;99322.81;;;28.53;20.35
61109;BME280;46995;55.740;37.402;2023-04-24T12:24:30;99313.25;;;28.94;21.38
61109;BME280;46995;55.740;37.402;2023-04-24T12:26:56;99315.53;;;29.02;20.72
61109;BME280;46995;55.740;37.402;2023-04-24T12:29:23;99314.00;;;28.19;22.08
61109;BME280;46995;55.740;37.402;2023-04-24T12:31:50;99306.59;;;26.98;22.38
61109;BME280;46995;55.740;37.402;2023-04-24T12:34:22;99301.44;;;25.82;22.18
61109;BME280;46995;55.740;37.402;2023-04-24T12:36:48;99313.81;;;24.83;23.12
61109;BME280;46995;55.740;37.402;2023-04-24T12:39:18;99308.00;;;24.13;23.97
61109;BME280;46995;55.740;37.402;2023-04-24T12:41:56;99312.34;;;23.78;24.10
61109;BME280;46995;55.740;37.402;2023-04-24T12:44:29;99298.75;;;23.41;23.71
61109;BME280;46995;55.740;37.402;2023-04-24T12:46:55;99303.59;;;23.08;23.77
61109;BME280;46995;55.740;37.402;2023-04-24T12:49:21;99301.72;;;22.70;24.43
61109;BME280;46995;55.740;37.402;2023-04-24T12:51:46;99302.50;;;22.33;24.68
61109;BME280;46995;55.740;37.402;2023-04-24T12:54:12;99290.00;;;22.01;24.71
61109;BME280;46995;55.740;37.402;2023-04-24T12:56:38;99290.22;;;21.79;23.94
61109;BME280;46995;55.740;37.402;2023-04-24T12:59:04;99293.34;;;21.56;24.86
61109;BME280;46995;55.740;37.402;2023-04-24T13:01:30;99288.63;;;21.39;24.97